Temvik, North Dakota
Current Conditions -  °F | °C
As of 1:55 PM on Thursday 27 Nov 2014 (Local Time) from K7L2 Reporting Station
Overcast Overcast  
Wind Chill: -7°   Ceiling: 5000
Heat Index:   Visibility: 10mi
Dew Point:   Wind: 13mph
Humidity: 85%   Direction: 130°SE
Pressure: 30.11"   Gusts: 21mph
Location:  46.3287°N, 100.226°W
Report Text: K7L2 271955Z AUTO 13011G18KT 10SM SCT035 OVC050 M13/M15 A3011 RMK AO2
Loading
Personal Weather Stations






























Interactive Weather Map New forecast layout! Learn more

10-Day Weather Forecast

Advertisements
Track Severe Weather on mobile